ETNL Airport Information

Runway Information
Runway 10 Length 8202 ft width 148 ft
Elevation 138 ft Threshold 0 ft Heading 98
Runway 28 Length 8202 ft Width 148 ft
Elevation 110 ft Threshold 0 ft Heading 278
Airport Frequencies
Type ACC Name BERLIN RAD Frequency 126.175 MHZ
Type INFO Name BERLIN INF Frequency 132.65 MHZ
Type RDR Name RADAR Frequency 34.4 MHZ
Type RDR Name RADAR Frequency 123.3 MHZ
Type TWR Name TWR Frequency 118.425 MHZ
Airport Navaids
Type TACAN Name Laage Frequency 108250 KHZ
Airport Weather Information & NOTAM
ADDS - METARS form results

(1543 UTC 25 June 2018)
 
METAR text: ETNL 251520Z 31009KT 9999 -RA FEW021 BKN090 19/13 Q1020 BLU FCST CANCEL
Conditions at: ETNL (LAAGE , DE) observed 1520 UTC 25 June 2018
Temperature: 19.0°C (66°F)
Dewpoint: 13.0°C (55°F) [RH = 68%]
Pressure (altimeter): 30.12 inches Hg (1020.0 mb)
Winds: from the NW (310 degrees) at 10 MPH (9 knots; 4.7 m/s)
Visibility: 6 or more miles (10+ km)
Ceiling: 9000 feet AGL
Clouds: few clouds at 2100 feet AGL
broken clouds at 9000 feet AGL
Weather: -RA  (light rain)